createdAt,value
2017-02-04T00:00:53.072Z,0
2017-02-04T00:01:53.052Z,0
2017-02-04T00:02:53.028Z,0
2017-02-04T00:03:53.026Z,0
2017-02-04T00:04:52.992Z,0
2017-02-04T00:05:52.989Z,0
2017-02-04T00:06:52.955Z,0
2017-02-04T00:07:52.944Z,0
2017-02-04T00:08:52.533Z,0
2017-02-04T00:09:52.902Z,0
2017-02-04T00:10:52.886Z,0
2017-02-04T00:11:53.070Z,0
2017-02-04T00:12:52.848Z,0
2017-02-04T00:13:52.833Z,0
2017-02-04T00:14:52.821Z,0
2017-02-04T00:15:52.799Z,0
2017-02-04T00:16:52.783Z,0
2017-02-04T00:17:52.765Z,0
2017-02-04T00:18:52.750Z,0
2017-02-04T00:19:52.336Z,0
2017-02-04T00:20:52.714Z,0
2017-02-04T00:21:52.708Z,0
2017-02-04T00:22:52.682Z,0
2017-02-04T00:23:52.276Z,0
2017-02-04T00:24:52.650Z,0
2017-02-04T00:25:52.627Z,0
2017-02-04T00:26:52.232Z,0
2017-02-04T00:27:52.198Z,0
2017-02-04T00:28:52.579Z,0
2017-02-04T00:29:52.168Z,0
2017-02-04T00:30:52.538Z,0
2017-02-04T00:31:52.529Z,0
2017-02-04T00:32:52.505Z,0
2017-02-04T00:33:52.488Z,0
2017-02-04T00:34:52.477Z,0
2017-02-04T00:35:52.133Z,0
2017-02-04T00:36:52.479Z,0
2017-02-04T00:37:52.426Z,0
2017-02-04T00:38:52.405Z,0
2017-02-04T00:39:52.412Z,0
2017-02-04T00:40:52.370Z,0
2017-02-04T00:41:52.356Z,0
2017-02-04T00:42:52.335Z,0
2017-02-04T00:43:52.328Z,0
2017-02-04T00:44:52.304Z,0
2017-02-04T00:45:52.286Z,0
2017-02-04T00:46:51.877Z,0
2017-02-04T00:47:51.494Z,0
2017-02-04T00:48:51.872Z,0
2017-02-04T00:49:52.232Z,0
2017-02-04T00:50:52.213Z,0
2017-02-04T00:51:52.191Z,0
2017-02-04T00:52:52.176Z,0
2017-02-04T00:53:52.158Z,0
2017-02-04T00:54:51.352Z,0
2017-02-04T00:55:52.126Z,0
2017-02-04T00:56:51.711Z,0
2017-02-04T00:57:52.087Z,0
2017-02-04T00:58:52.067Z,0
2017-02-04T00:59:52.048Z,0
2017-02-04T01:00:51.640Z,0
2017-02-04T01:01:52.024Z,0
2017-02-04T01:02:52.000Z,0
2017-02-04T01:03:51.591Z,0
2017-02-04T01:04:51.573Z,0
2017-02-04T01:05:51.949Z,0
2017-02-04T01:06:51.535Z,0
2017-02-04T01:07:51.916Z,0
2017-02-04T01:08:51.901Z,0
2017-02-04T01:09:51.892Z,0
2017-02-04T01:10:51.877Z,0
2017-02-04T01:11:51.849Z,0
2017-02-04T01:12:51.828Z,0
2017-02-04T01:13:51.824Z,0
2017-02-04T01:14:51.800Z,0
2017-02-04T01:15:51.786Z,0
2017-02-04T01:16:51.774Z,0
2017-02-04T01:17:51.350Z,0
2017-02-04T01:18:51.733Z,0
2017-02-04T01:19:51.315Z,0
2017-02-04T01:20:51.699Z,0
2017-02-04T01:21:51.677Z,0
2017-02-04T01:22:51.273Z,0
2017-02-04T01:23:51.645Z,0
2017-02-04T01:24:51.627Z,0
2017-02-04T01:25:51.611Z,0
2017-02-04T01:26:51.598Z,0
2017-02-04T01:27:51.574Z,0
2017-02-04T01:28:51.559Z,0
2017-02-04T01:29:51.541Z,0
2017-02-04T01:30:51.523Z,0
2017-02-04T01:31:51.117Z,0
2017-02-04T01:32:51.491Z,0
2017-02-04T01:33:51.080Z,0
2017-02-04T01:34:51.461Z,0
2017-02-04T01:35:51.438Z,0
2017-02-04T01:36:51.426Z,0
2017-02-04T01:37:51.407Z,0
2017-02-04T01:38:51.005Z,0
2017-02-04T01:39:51.370Z,0
2017-02-04T01:40:51.359Z,0
2017-02-04T01:41:51.341Z,0
2017-02-04T01:42:51.324Z,0
2017-02-04T01:43:51.302Z,0
2017-02-04T01:44:50.891Z,0
2017-02-04T01:45:50.872Z,0
2017-02-04T01:46:51.254Z,0
2017-02-04T01:47:50.839Z,0
2017-02-04T01:48:51.245Z,0
2017-02-04T01:49:50.416Z,0
2017-02-04T01:50:50.808Z,0
2017-02-04T01:51:51.178Z,0
2017-02-04T01:52:50.767Z,0
2017-02-04T01:53:51.137Z,0
2017-02-04T01:54:51.121Z,0
2017-02-04T01:55:51.106Z,0
2017-02-04T01:56:51.089Z,0
2017-02-04T01:57:51.073Z,0
2017-02-04T01:58:51.060Z,0
2017-02-04T01:59:51.043Z,0
2017-02-04T02:00:51.023Z,0
2017-02-04T02:01:50.639Z,0
2017-02-04T02:02:50.601Z,0
2017-02-04T02:03:50.606Z,0
2017-02-04T02:04:51.004Z,0
2017-02-04T02:05:50.958Z,0
2017-02-04T02:06:50.937Z,0
2017-02-04T02:07:50.986Z,0
2017-02-04T02:08:50.495Z,0
2017-02-04T02:09:50.874Z,0
2017-02-04T02:10:50.850Z,0
2017-02-04T02:11:51.033Z,0
2017-02-04T02:12:50.823Z,0
2017-02-04T02:13:50.798Z,0
2017-02-04T02:14:50.781Z,0
2017-02-04T02:15:50.766Z,0
2017-02-04T02:16:50.750Z,0
2017-02-04T02:17:50.729Z,0
2017-02-04T02:18:50.712Z,0
2017-02-04T02:19:50.698Z,0
2017-02-04T02:20:50.682Z,0
2017-02-04T02:21:50.669Z,0
2017-02-04T02:22:50.648Z,0
2017-02-04T02:23:50.664Z,0
2017-02-04T02:24:50.613Z,0
2017-02-04T02:25:50.595Z,0
2017-02-04T02:26:50.190Z,0
2017-02-04T02:27:50.565Z,0
2017-02-04T02:28:50.150Z,0
2017-02-04T02:29:50.129Z,0
2017-02-04T02:30:50.124Z,0
2017-02-04T02:31:50.499Z,0
2017-02-04T02:32:50.479Z,0
2017-02-04T02:33:50.467Z,0
2017-02-04T02:34:50.445Z,0
2017-02-04T02:35:50.032Z,0
2017-02-04T02:36:50.403Z,0
2017-02-04T02:37:49.993Z,0
2017-02-04T02:38:49.976Z,0
2017-02-04T02:39:50.360Z,0
2017-02-04T02:40:50.360Z,0
2017-02-04T02:41:49.933Z,0
2017-02-04T02:42:50.306Z,0
2017-02-04T02:43:49.895Z,0
2017-02-04T02:44:50.276Z,0
2017-02-04T02:45:49.861Z,0
2017-02-04T02:46:50.249Z,0
2017-02-04T02:47:50.227Z,0
2017-02-04T02:48:50.203Z,0
2017-02-04T02:49:49.792Z,0
2017-02-04T02:50:50.163Z,0
2017-02-04T02:51:50.152Z,0
2017-02-04T02:52:50.130Z,0
2017-02-04T02:53:50.125Z,0
2017-02-04T02:54:49.305Z,0
2017-02-04T02:55:49.697Z,0
2017-02-04T02:56:50.061Z,0
2017-02-04T02:57:50.040Z,0
2017-02-04T02:58:49.628Z,0
2017-02-04T02:59:50.014Z,0
2017-02-04T03:00:49.994Z,0
2017-02-04T03:01:49.969Z,0
2017-02-04T03:02:49.962Z,0
2017-02-04T03:03:49.937Z,0
2017-02-04T03:04:49.934Z,0
2017-02-04T03:05:49.905Z,0
2017-02-04T03:06:49.935Z,0
2017-02-04T03:07:49.888Z,0
2017-02-04T03:08:49.851Z,0
2017-02-04T03:09:49.439Z,0
2017-02-04T03:10:49.425Z,0
2017-02-04T03:11:49.414Z,0
2017-02-04T03:12:49.385Z,0
2017-02-04T03:13:49.803Z,0
2017-02-04T03:14:49.373Z,0
2017-02-04T03:15:49.743Z,0
2017-02-04T03:16:49.716Z,0
2017-02-04T03:17:49.300Z,0
2017-02-04T03:18:49.673Z,0
2017-02-04T03:19:49.657Z,0
2017-02-04T03:20:49.639Z,0
2017-02-04T03:21:49.630Z,0
2017-02-04T03:22:49.600Z,0
2017-02-04T03:23:49.583Z,0
2017-02-04T03:24:49.168Z,0
2017-02-04T03:25:49.549Z,0
2017-02-04T03:26:49.535Z,0
2017-02-04T03:27:49.510Z,0
2017-02-04T03:28:49.489Z,0
2017-02-04T03:29:49.475Z,0
2017-02-04T03:30:49.453Z,0
2017-02-04T03:31:49.441Z,0
2017-02-04T03:32:49.427Z,0
2017-02-04T03:33:49.406Z,0
2017-02-04T03:34:49.389Z,0
2017-02-04T03:35:48.583Z,0
2017-02-04T03:36:48.592Z,0
2017-02-04T03:37:49.333Z,0
2017-02-04T03:38:48.938Z,0
2017-02-04T03:39:49.294Z,0
2017-02-04T03:40:48.914Z,0
2017-02-04T03:41:49.262Z,0
2017-02-04T03:42:48.847Z,0
2017-02-04T03:43:48.824Z,0
2017-02-04T03:44:49.202Z,0
2017-02-04T03:45:49.189Z,0
2017-02-04T03:46:49.168Z,0
2017-02-04T03:47:48.808Z,0
2017-02-04T03:48:49.131Z,0
2017-02-04T03:49:49.110Z,0
2017-02-04T03:50:49.099Z,0
2017-02-04T03:51:49.080Z,0
2017-02-04T03:52:49.057Z,0
2017-02-04T03:53:49.038Z,0
2017-02-04T03:54:49.038Z,0
2017-02-04T03:55:49.021Z,0
2017-02-04T03:56:48.590Z,0
2017-02-04T03:57:48.967Z,0
2017-02-04T03:58:48.173Z,0
2017-02-04T03:59:48.925Z,0
2017-02-04T04:00:48.921Z,0
2017-02-04T04:01:48.100Z,0
2017-02-04T04:02:48.871Z,0
2017-02-04T04:03:48.861Z,0
2017-02-04T04:04:48.841Z,0
2017-02-04T04:05:48.824Z,0
2017-02-04T04:06:48.839Z,0
2017-02-04T04:07:48.814Z,0
2017-02-04T04:08:48.768Z,0
2017-02-04T04:09:48.351Z,0
2017-02-04T04:10:48.329Z,0
2017-02-04T04:11:48.907Z,0
2017-02-04T04:12:48.688Z,0
2017-02-04T04:13:48.871Z,0
2017-02-04T04:14:48.254Z,0
2017-02-04T04:15:48.242Z,0
2017-02-04T04:16:48.612Z,0
2017-02-04T04:17:48.597Z,0
2017-02-04T04:18:48.184Z,0
2017-02-04T04:19:47.767Z,0
2017-02-04T04:20:48.145Z,0
2017-02-04T04:21:48.524Z,0
2017-02-04T04:22:48.110Z,0
2017-02-04T04:23:48.490Z,0
2017-02-04T04:24:48.074Z,0
2017-02-04T04:25:48.453Z,0
2017-02-04T04:26:48.432Z,0
2017-02-04T04:27:47.248Z,0
2017-02-04T04:28:48.415Z,0
2017-02-04T04:29:48.400Z,0
2017-02-04T04:30:48.401Z,0
2017-02-04T04:31:48.347Z,0
2017-02-04T04:32:48.327Z,0
2017-02-04T04:33:47.911Z,0
2017-02-04T04:34:47.101Z,0
2017-02-04T04:35:47.869Z,0
2017-02-04T04:36:47.459Z,0
2017-02-04T04:37:47.834Z,0
2017-02-04T04:38:48.215Z,0
2017-02-04T04:39:48.201Z,0
2017-02-04T04:40:48.183Z,0
2017-02-04T04:41:48.157Z,0
2017-02-04T04:42:47.745Z,0
2017-02-04T04:43:47.727Z,0
2017-02-04T04:44:47.710Z,0
2017-02-04T04:45:48.086Z,0
2017-02-04T04:46:47.277Z,0
2017-02-04T04:47:48.058Z,0
2017-02-04T04:48:48.037Z,0
2017-02-04T04:49:48.013Z,0
2017-02-04T04:50:47.993Z,0
2017-02-04T04:51:47.985Z,0
2017-02-04T04:52:47.964Z,0
2017-02-04T04:53:47.943Z,0
2017-02-04T04:54:47.920Z,0
2017-02-04T04:55:47.905Z,0
2017-02-04T04:56:47.921Z,0
2017-02-04T04:57:47.872Z,0
2017-02-04T04:58:47.852Z,0
2017-02-04T04:59:47.847Z,0
2017-02-04T05:00:47.419Z,0
2017-02-04T05:01:47.804Z,0
2017-02-04T05:02:47.782Z,0
2017-02-04T05:03:47.366Z,0
2017-02-04T05:04:47.745Z,0
2017-02-04T05:05:47.327Z,0
2017-02-04T05:06:47.713Z,0
2017-02-04T05:07:47.690Z,0
2017-02-04T05:08:47.273Z,0
2017-02-04T05:09:47.657Z,0
2017-02-04T05:10:47.639Z,0
2017-02-04T05:11:47.618Z,0
2017-02-04T05:12:47.601Z,0
2017-02-04T05:13:47.581Z,0
2017-02-04T05:14:47.171Z,0
2017-02-04T05:15:47.549Z,0
2017-02-04T05:16:47.531Z,0
2017-02-04T05:17:47.517Z,0
2017-02-04T05:18:47.489Z,0
2017-02-04T05:19:47.085Z,0
2017-02-04T05:20:47.457Z,0
2017-02-04T05:21:47.437Z,0
2017-02-04T05:22:47.409Z,0
2017-02-04T05:23:47.400Z,0
2017-02-04T05:24:46.984Z,0
2017-02-04T05:25:47.413Z,0
2017-02-04T05:26:47.354Z,0
2017-02-04T05:27:47.335Z,0
2017-02-04T05:28:47.315Z,0
2017-02-04T05:29:47.288Z,0
2017-02-04T05:30:47.272Z,0
2017-02-04T05:31:47.264Z,0
2017-02-04T05:32:47.234Z,0
2017-02-04T05:33:46.823Z,0
2017-02-04T05:34:47.204Z,0
2017-02-04T05:35:46.787Z,0
2017-02-04T05:36:47.172Z,0
2017-02-04T05:37:47.166Z,0
2017-02-04T05:38:47.134Z,0
2017-02-04T05:39:46.326Z,0
2017-02-04T05:40:47.113Z,0
2017-02-04T05:41:47.093Z,0
2017-02-04T05:42:46.665Z,0
2017-02-04T05:43:47.040Z,0
2017-02-04T05:44:47.020Z,0
2017-02-04T05:45:47.006Z,0
2017-02-04T05:46:46.980Z,0
2017-02-04T05:47:47.006Z,0
2017-02-04T05:48:46.584Z,0
2017-02-04T05:49:46.929Z,0
2017-02-04T05:50:46.919Z,0
2017-02-04T05:51:46.924Z,0
2017-02-04T05:52:46.873Z,0
2017-02-04T05:53:46.858Z,0
2017-02-04T05:54:46.841Z,0
2017-02-04T05:55:46.826Z,0
2017-02-04T05:56:46.822Z,0
2017-02-04T05:57:45.995Z,0
2017-02-04T05:58:46.770Z,0
2017-02-04T05:59:46.744Z,0
2017-02-04T06:00:46.727Z,0
2017-02-04T06:01:46.706Z,0
2017-02-04T06:02:46.704Z,0
2017-02-04T06:03:46.277Z,0
2017-02-04T06:04:46.650Z,0
2017-02-04T06:05:46.642Z,0
2017-02-04T06:06:46.225Z,0
2017-02-04T06:07:46.195Z,0
2017-02-04T06:08:46.583Z,0
2017-02-04T06:09:46.579Z,0
2017-02-04T06:10:46.548Z,0
2017-02-04T06:11:46.762Z,0
2017-02-04T06:12:46.114Z,0
2017-02-04T06:13:46.492Z,0
2017-02-04T06:14:46.471Z,0
2017-02-04T06:15:46.461Z,0
2017-02-04T06:16:46.429Z,0
2017-02-04T06:17:46.021Z,0
2017-02-04T06:18:46.396Z,0
2017-02-04T06:19:46.382Z,0
2017-02-04T06:20:46.364Z,0
2017-02-04T06:21:45.949Z,0
2017-02-04T06:22:45.927Z,0
2017-02-04T06:23:46.307Z,0
2017-02-04T06:24:46.337Z,0
2017-02-04T06:25:46.055Z,0
2017-02-04T06:26:45.872Z,0
2017-02-04T06:27:46.245Z,0
2017-02-04T06:28:46.212Z,0
2017-02-04T06:29:46.192Z,0
2017-02-04T06:30:46.179Z,0
2017-02-04T06:31:45.763Z,0
2017-02-04T06:32:46.152Z,0
2017-02-04T06:33:45.718Z,0
2017-02-04T06:34:46.104Z,0
2017-02-04T06:35:45.683Z,0
2017-02-04T06:36:45.675Z,0
2017-02-04T06:37:46.057Z,0
2017-02-04T06:38:45.642Z,0
2017-02-04T06:39:46.012Z,0
2017-02-04T06:40:45.988Z,0
2017-02-04T06:41:46.013Z,0
2017-02-04T06:42:45.952Z,0
2017-02-04T06:43:45.535Z,0
2017-02-04T06:44:45.520Z,0
2017-02-04T06:45:45.503Z,0
2017-02-04T06:46:45.878Z,0
2017-02-04T06:47:45.853Z,0
2017-02-04T06:48:45.834Z,0
2017-02-04T06:49:45.424Z,0
2017-02-04T06:50:45.797Z,0
2017-02-04T06:51:45.778Z,0
2017-02-04T06:52:45.764Z,0
2017-02-04T06:53:45.741Z,0
2017-02-04T06:54:45.727Z,0
2017-02-04T06:55:45.707Z,0
2017-02-04T06:56:45.688Z,0
2017-02-04T06:57:45.667Z,0
2017-02-04T06:58:45.263Z,0
2017-02-04T06:59:45.675Z,5
2017-02-04T07:00:45.617Z,5
2017-02-04T07:01:45.603Z,5
2017-02-04T07:02:45.579Z,5
2017-02-04T07:03:45.555Z,5
2017-02-04T07:04:45.541Z,5
2017-02-04T07:05:45.124Z,5
2017-02-04T07:06:45.503Z,5
2017-02-04T07:07:45.090Z,10
2017-02-04T07:08:45.466Z,10
2017-02-04T07:09:45.445Z,10
2017-02-04T07:10:45.970Z,10
2017-02-04T07:11:45.440Z,10
2017-02-04T07:12:45.386Z,10
2017-02-04T07:13:44.974Z,10
2017-02-04T07:14:45.350Z,15
2017-02-04T07:15:45.333Z,15
2017-02-04T07:16:45.315Z,15
2017-02-04T07:17:45.292Z,15
2017-02-04T07:18:45.282Z,15
2017-02-04T07:19:45.262Z,15
2017-02-04T07:20:45.250Z,20
2017-02-04T07:21:44.827Z,20
2017-02-04T07:22:45.203Z,20
2017-02-04T07:23:44.787Z,20
2017-02-04T07:24:44.769Z,20
2017-02-04T07:25:45.138Z,20
2017-02-04T07:26:45.131Z,25
2017-02-04T07:27:45.101Z,25
2017-02-04T07:28:45.130Z,25
2017-02-04T07:29:45.101Z,25
2017-02-04T07:30:45.051Z,25
2017-02-04T07:31:44.635Z,25
2017-02-04T07:32:44.229Z,30
2017-02-04T07:33:44.986Z,30
2017-02-04T07:34:44.568Z,30
2017-02-04T07:35:44.953Z,30
2017-02-04T07:36:44.542Z,30
2017-02-04T07:37:44.919Z,30
2017-02-04T07:38:44.519Z,35
2017-02-04T07:39:44.882Z,35
2017-02-04T07:40:44.858Z,35
2017-02-04T07:41:44.835Z,35
2017-02-04T07:42:44.826Z,35
2017-02-04T07:43:44.806Z,35
2017-02-04T07:44:44.787Z,35
2017-02-04T07:45:44.770Z,35
2017-02-04T07:46:44.362Z,40
2017-02-04T07:47:44.727Z,40
2017-02-04T07:48:44.751Z,40
2017-02-04T07:49:43.899Z,40
2017-02-04T07:50:44.673Z,40
2017-02-04T07:51:44.654Z,45
2017-02-04T07:52:44.635Z,45
2017-02-04T07:53:44.619Z,45
2017-02-04T07:54:44.591Z,45
2017-02-04T07:55:44.575Z,50
2017-02-04T07:56:44.556Z,50
2017-02-04T07:57:44.536Z,50
2017-02-04T07:58:44.522Z,50
2017-02-04T07:59:44.143Z,55
2017-02-04T08:00:44.485Z,55
2017-02-04T08:01:44.456Z,55
2017-02-04T08:02:44.442Z,55
2017-02-04T08:03:44.427Z,60
2017-02-04T08:04:44.400Z,60
2017-02-04T08:05:44.385Z,60
2017-02-04T08:06:44.459Z,60
2017-02-04T08:07:44.370Z,60
2017-02-04T08:08:44.330Z,60
2017-02-04T08:09:44.421Z,60
2017-02-04T08:10:44.298Z,60
2017-02-04T08:11:44.278Z,60
2017-02-04T08:12:43.461Z,65
2017-02-04T08:13:44.230Z,65
2017-02-04T08:14:43.818Z,65
2017-02-04T08:15:44.228Z,65
2017-02-04T08:16:44.181Z,65
2017-02-04T08:17:43.759Z,65
2017-02-04T08:18:44.146Z,70
2017-02-04T08:19:44.115Z,70
2017-02-04T08:20:44.111Z,70
2017-02-04T08:21:44.087Z,75
2017-02-04T08:22:43.669Z,75
2017-02-04T08:23:44.066Z,75
2017-02-04T08:24:43.651Z,75
2017-02-04T08:25:44.016Z,75
2017-02-04T08:26:43.627Z,75
2017-02-04T08:27:43.987Z,75
2017-02-04T08:28:43.975Z,75
2017-02-04T08:29:43.947Z,75
2017-02-04T08:30:43.914Z,75
2017-02-04T08:31:43.928Z,75
2017-02-04T08:32:43.482Z,75
2017-02-04T08:33:43.859Z,75
2017-02-04T08:34:43.840Z,75
2017-02-04T08:35:43.858Z,75
2017-02-04T08:36:43.435Z,75
2017-02-04T08:37:43.399Z,75
2017-02-04T08:38:43.365Z,75
2017-02-04T08:39:43.741Z,75
2017-02-04T08:40:43.726Z,75
2017-02-04T08:41:43.738Z,75
2017-02-04T08:42:43.694Z,70
2017-02-04T08:43:43.676Z,70
2017-02-04T08:44:43.267Z,75
2017-02-04T08:45:43.631Z,80
2017-02-04T08:46:43.627Z,85
2017-02-04T08:47:43.600Z,85
2017-02-04T08:48:43.202Z,90
2017-02-04T08:49:43.556Z,95
2017-02-04T08:50:43.149Z,100
2017-02-04T08:51:43.127Z,110
2017-02-04T08:52:43.501Z,110
2017-02-04T08:53:43.490Z,115
2017-02-04T08:54:43.507Z,115
2017-02-04T08:55:43.446Z,120
2017-02-04T08:56:43.031Z,125
2017-02-04T08:57:43.417Z,130
2017-02-04T08:58:43.002Z,135
2017-02-04T08:59:43.381Z,135
2017-02-04T09:00:43.401Z,135
2017-02-04T09:01:43.336Z,135
2017-02-04T09:02:43.320Z,140
2017-02-04T09:03:43.308Z,140
2017-02-04T09:04:43.297Z,140
2017-02-04T09:05:43.273Z,140
2017-02-04T09:06:43.252Z,140
2017-02-04T09:07:42.833Z,145
2017-02-04T09:08:42.820Z,145
2017-02-04T09:09:43.199Z,145
2017-02-04T09:10:43.186Z,145
2017-02-04T09:11:43.161Z,150
2017-02-04T09:12:42.750Z,150
2017-02-04T09:13:43.130Z,150
2017-02-04T09:14:43.134Z,155
2017-02-04T09:15:43.097Z,155
2017-02-04T09:16:43.117Z,155
2017-02-04T09:17:43.054Z,155
2017-02-04T09:18:43.046Z,155
2017-02-04T09:19:43.026Z,155
2017-02-04T09:20:43.013Z,160
2017-02-04T09:21:43.038Z,160
2017-02-04T09:22:42.200Z,160
2017-02-04T09:23:42.580Z,160
2017-02-04T09:24:42.983Z,165
2017-02-04T09:25:42.924Z,175
2017-02-04T09:26:42.906Z,170
2017-02-04T09:27:42.494Z,170
2017-02-04T09:28:42.880Z,175
2017-02-04T09:29:42.457Z,180
2017-02-04T09:30:42.859Z,180
2017-02-04T09:31:42.822Z,190
2017-02-04T09:32:42.823Z,195
2017-02-04T09:33:42.845Z,200
2017-02-04T09:34:42.782Z,200
2017-02-04T09:35:42.772Z,205
2017-02-04T09:36:42.765Z,200
2017-02-04T09:37:42.346Z,205
2017-02-04T09:38:42.730Z,205
2017-02-04T09:39:42.699Z,205
2017-02-04T09:40:42.701Z,205
2017-02-04T09:41:42.279Z,205
2017-02-04T09:42:42.643Z,210
2017-02-04T09:43:42.630Z,215
2017-02-04T09:44:42.612Z,260
2017-02-04T09:45:42.602Z,305
2017-02-04T09:46:42.585Z,255
2017-02-04T09:47:42.566Z,235
2017-02-04T09:48:42.555Z,215
2017-02-04T09:49:42.532Z,210
2017-02-04T09:50:41.781Z,215
2017-02-04T09:51:42.532Z,220
2017-02-04T09:52:42.094Z,215
2017-02-04T09:53:42.083Z,225
2017-02-04T09:54:42.062Z,230
2017-02-04T09:55:42.440Z,255
2017-02-04T09:56:42.425Z,255
2017-02-04T09:57:41.618Z,240
2017-02-04T09:58:42.400Z,220
2017-02-04T09:59:42.390Z,215
2017-02-04T10:00:42.367Z,215
2017-02-04T10:01:42.353Z,220
2017-02-04T10:02:42.335Z,220
2017-02-04T10:03:41.937Z,230
2017-02-04T10:04:41.913Z,225
2017-02-04T10:05:42.290Z,230
2017-02-04T10:06:41.882Z,230
2017-02-04T10:07:42.271Z,225
2017-02-04T10:08:42.248Z,225
2017-02-04T10:09:42.231Z,230
2017-02-04T10:10:41.824Z,230
2017-02-04T10:11:42.208Z,235
2017-02-04T10:12:42.185Z,230
2017-02-04T10:13:41.773Z,230
2017-02-04T10:14:41.757Z,245
2017-02-04T10:15:41.746Z,255
2017-02-04T10:16:42.124Z,255
2017-02-04T10:17:41.721Z,255
2017-02-04T10:18:42.101Z,255
2017-02-04T10:19:41.687Z,260
2017-02-04T10:20:41.675Z,265
2017-02-04T10:21:42.056Z,245
2017-02-04T10:22:42.041Z,250
2017-02-04T10:23:42.028Z,265
2017-02-04T10:24:42.009Z,290
2017-02-04T10:25:41.995Z,290
2017-02-04T10:26:41.592Z,325
2017-02-04T10:27:41.978Z,315
2017-02-04T10:28:41.962Z,310
2017-02-04T10:29:41.995Z,300
2017-02-04T10:30:41.953Z,305
2017-02-04T10:31:41.537Z,305
2017-02-04T10:32:41.509Z,295
2017-02-04T10:33:41.897Z,285
2017-02-04T10:34:41.883Z,275
2017-02-04T10:35:41.470Z,235
2017-02-04T10:36:41.847Z,235
2017-02-04T10:37:41.442Z,230
2017-02-04T10:38:41.820Z,225
2017-02-04T10:39:41.416Z,220
2017-02-04T10:40:41.801Z,225
2017-02-04T10:41:41.783Z,220
2017-02-04T10:42:41.783Z,220
2017-02-04T10:43:41.758Z,225
2017-02-04T10:44:41.739Z,230
2017-02-04T10:45:41.727Z,230
2017-02-04T10:46:41.718Z,235
2017-02-04T10:47:41.740Z,255
2017-02-04T10:48:41.690Z,255
2017-02-04T10:49:41.683Z,265
2017-02-04T10:50:41.655Z,280
2017-02-04T10:51:41.671Z,290
2017-02-04T10:52:41.624Z,300
2017-02-04T10:53:41.614Z,315
2017-02-04T10:54:41.640Z,315
2017-02-04T10:55:41.589Z,325
2017-02-04T10:56:41.592Z,325
2017-02-04T10:57:41.565Z,305
2017-02-04T10:58:41.161Z,295
2017-02-04T10:59:41.537Z,295
2017-02-04T11:00:41.523Z,300
2017-02-04T11:01:41.516Z,310
2017-02-04T11:02:41.503Z,310
2017-02-04T11:03:41.478Z,305
2017-02-04T11:04:41.074Z,285
2017-02-04T11:05:41.460Z,265
2017-02-04T11:06:41.443Z,260
2017-02-04T11:07:40.654Z,255
2017-02-04T11:08:41.012Z,245
2017-02-04T11:09:41.020Z,245
2017-02-04T11:10:41.002Z,235
2017-02-04T11:11:40.979Z,230
2017-02-04T11:12:41.408Z,225
2017-02-04T11:13:40.972Z,220
2017-02-04T11:14:41.342Z,220
2017-02-04T11:15:41.326Z,220
2017-02-04T11:16:41.433Z,220
2017-02-04T11:17:41.331Z,220
2017-02-04T11:18:41.297Z,220
2017-02-04T11:19:40.874Z,220
2017-02-04T11:20:41.271Z,220
2017-02-04T11:21:40.855Z,220
2017-02-04T11:22:41.227Z,220
2017-02-04T11:23:40.821Z,220
2017-02-04T11:24:41.200Z,215
2017-02-04T11:25:41.199Z,210
2017-02-04T11:26:40.792Z,205
2017-02-04T11:27:40.766Z,205
2017-02-04T11:28:40.765Z,200
2017-02-04T11:29:41.131Z,195
2017-02-04T11:30:40.735Z,195
2017-02-04T11:31:41.106Z,195
2017-02-04T11:32:41.090Z,190
2017-02-04T11:33:41.081Z,190
2017-02-04T11:34:40.665Z,190
2017-02-04T11:35:41.053Z,190
2017-02-04T11:36:41.033Z,195
2017-02-04T11:37:41.039Z,200
2017-02-04T11:38:40.612Z,205
2017-02-04T11:39:40.998Z,210
2017-02-04T11:40:40.587Z,215
2017-02-04T11:41:40.968Z,220
2017-02-04T11:42:40.556Z,225
2017-02-04T11:43:40.549Z,225
2017-02-04T11:44:40.927Z,230
2017-02-04T11:45:40.912Z,230
2017-02-04T11:46:40.905Z,230
2017-02-04T11:47:40.872Z,230
2017-02-04T11:48:40.861Z,230
2017-02-04T11:49:40.454Z,230
2017-02-04T11:50:40.835Z,235
2017-02-04T11:51:40.828Z,235
2017-02-04T11:52:40.808Z,235
2017-02-04T11:53:40.801Z,235
2017-02-04T11:54:40.784Z,240
2017-02-04T11:55:40.375Z,240
2017-02-04T11:56:40.758Z,240
2017-02-04T11:57:40.742Z,240
2017-02-04T11:58:40.733Z,245
2017-02-04T11:59:40.715Z,245
2017-02-04T12:00:40.307Z,240
2017-02-04T12:01:40.688Z,240
2017-02-04T12:02:40.689Z,240
2017-02-04T12:03:40.671Z,240
2017-02-04T12:04:40.648Z,235
2017-02-04T12:05:40.240Z,235
2017-02-04T12:06:40.626Z,235
2017-02-04T12:07:40.620Z,230
2017-02-04T12:08:40.590Z,230
2017-02-04T12:09:40.580Z,230
2017-02-04T12:10:40.561Z,225
2017-02-04T12:11:40.558Z,225
2017-02-04T12:12:40.348Z,215
2017-02-04T12:13:40.525Z,215
2017-02-04T12:14:40.514Z,210
2017-02-04T12:15:40.108Z,205
2017-02-04T12:16:40.087Z,200
2017-02-04T12:17:40.466Z,195
2017-02-04T12:18:40.093Z,195
2017-02-04T12:19:40.051Z,195
2017-02-04T12:20:40.030Z,195
2017-02-04T12:21:40.416Z,195
2017-02-04T12:22:40.045Z,195
2017-02-04T12:23:40.000Z,195
2017-02-04T12:24:40.378Z,195
2017-02-04T12:25:40.372Z,195
2017-02-04T12:26:39.951Z,195
2017-02-04T12:27:40.336Z,195
2017-02-04T12:28:40.325Z,195
2017-02-04T12:29:40.305Z,190
2017-02-04T12:30:40.306Z,185
2017-02-04T12:31:40.274Z,185
2017-02-04T12:32:39.878Z,185
2017-02-04T12:33:40.250Z,185
2017-02-04T12:34:40.233Z,180
2017-02-04T12:35:40.221Z,180
2017-02-04T12:36:40.217Z,175
2017-02-04T12:37:39.803Z,175
2017-02-04T12:38:40.178Z,175
2017-02-04T12:39:40.183Z,175
2017-02-04T12:40:40.156Z,180
2017-02-04T12:41:40.137Z,180
2017-02-04T12:42:40.125Z,180
2017-02-04T12:43:40.114Z,180
2017-02-04T12:44:40.100Z,180
2017-02-04T12:45:39.702Z,175
2017-02-04T12:46:40.072Z,175
2017-02-04T12:47:40.065Z,175
2017-02-04T12:48:40.044Z,175
2017-02-04T12:49:40.233Z,170
2017-02-04T12:50:40.019Z,170
2017-02-04T12:51:39.212Z,170
2017-02-04T12:52:39.997Z,170
2017-02-04T12:53:39.976Z,165
2017-02-04T12:54:39.959Z,165
2017-02-04T12:55:39.945Z,165
2017-02-04T12:56:39.948Z,170
2017-02-04T12:57:39.923Z,180
2017-02-04T12:58:39.899Z,175
2017-02-04T12:59:39.897Z,170
2017-02-04T13:00:39.494Z,170
2017-02-04T13:01:39.103Z,170
2017-02-04T13:02:39.455Z,165
2017-02-04T13:03:39.847Z,160
2017-02-04T13:04:39.424Z,155
2017-02-04T13:05:39.815Z,155
2017-02-04T13:06:39.813Z,150
2017-02-04T13:07:39.388Z,150
2017-02-04T13:08:39.367Z,145
2017-02-04T13:09:39.804Z,145
2017-02-04T13:10:39.746Z,140
2017-02-04T13:11:39.339Z,140
2017-02-04T13:12:38.919Z,140
2017-02-04T13:13:39.300Z,140
2017-02-04T13:14:39.297Z,140
2017-02-04T13:15:39.680Z,140
2017-02-04T13:16:39.260Z,140
2017-02-04T13:17:39.676Z,140
2017-02-04T13:18:39.642Z,140
2017-02-04T13:19:39.248Z,140
2017-02-04T13:20:39.211Z,140
2017-02-04T13:21:39.595Z,145
2017-02-04T13:22:39.568Z,145
2017-02-04T13:23:39.571Z,150
2017-02-04T13:24:39.541Z,150
2017-02-04T13:25:39.532Z,155
2017-02-04T13:26:38.720Z,155
2017-02-04T13:27:39.500Z,150
2017-02-04T13:28:39.486Z,150
2017-02-04T13:29:39.475Z,150
2017-02-04T13:30:39.466Z,145
2017-02-04T13:31:39.443Z,145
2017-02-04T13:32:39.433Z,140
2017-02-04T13:33:39.018Z,125
2017-02-04T13:34:39.009Z,115
2017-02-04T13:35:39.029Z,100
2017-02-04T13:36:39.381Z,100
2017-02-04T13:37:39.366Z,90
2017-02-04T13:38:39.349Z,85
2017-02-04T13:39:39.327Z,80
2017-02-04T13:40:38.917Z,70
2017-02-04T13:41:38.910Z,70
2017-02-04T13:42:38.894Z,65
2017-02-04T13:43:39.269Z,65
2017-02-04T13:44:38.868Z,60
2017-02-04T13:45:39.259Z,60
2017-02-04T13:46:39.434Z,65
2017-02-04T13:47:38.823Z,65
2017-02-04T13:48:38.411Z,70
2017-02-04T13:49:38.400Z,70
2017-02-04T13:50:39.191Z,70
2017-02-04T13:51:38.776Z,65
2017-02-04T13:52:39.156Z,65
2017-02-04T13:53:38.783Z,65
2017-02-04T13:54:38.324Z,65
2017-02-04T13:55:39.111Z,60
2017-02-04T13:56:38.693Z,65
2017-02-04T13:57:38.291Z,65
2017-02-04T13:58:39.078Z,65
2017-02-04T13:59:39.043Z,70
2017-02-04T14:00:39.047Z,70
2017-02-04T14:01:38.618Z,70
2017-02-04T14:02:39.088Z,70
2017-02-04T14:03:38.599Z,70
2017-02-04T14:04:38.978Z,70
2017-02-04T14:05:38.561Z,70
2017-02-04T14:06:38.937Z,70
2017-02-04T14:07:38.936Z,70
2017-02-04T14:08:38.914Z,70
2017-02-04T14:09:38.892Z,70
2017-02-04T14:10:38.880Z,75
2017-02-04T14:11:38.865Z,80
2017-02-04T14:12:39.053Z,80
2017-02-04T14:13:38.834Z,85
2017-02-04T14:14:38.827Z,80
2017-02-04T14:15:38.415Z,80
2017-02-04T14:16:38.788Z,85
2017-02-04T14:17:38.779Z,85
2017-02-04T14:18:38.762Z,85
2017-02-04T14:19:38.748Z,80
2017-02-04T14:20:38.334Z,80